sensor_id;sensor_type;location;lat;lon;timestamp;P1;durP1;ratioP1;P2;durP2;ratioP2
59062;SDS011;44851;45.648;9.004;2023-10-31T00:02:34;30.27;;;23.57;;
59062;SDS011;44851;45.648;9.004;2023-10-31T00:06:10;31.97;;;23.07;;
59062;SDS011;44851;45.648;9.004;2023-10-31T00:09:34;27.27;;;21.53;;
59062;SDS011;44851;45.648;9.004;2023-10-31T00:18:39;28.43;;;22.97;;
59062;SDS011;44851;45.648;9.004;2023-10-31T00:22:20;28.67;;;21.77;;
59062;SDS011;44851;45.648;9.004;2023-10-31T00:29:18;26.73;;;20.80;;
59062;SDS011;44851;45.648;9.004;2023-10-31T00:51:52;27.50;;;23.30;;
59062;SDS011;44851;45.648;9.004;2023-10-31T00:54:53;30.90;;;24.10;;
59062;SDS011;44851;45.648;9.004;2023-10-31T00:57:21;31.27;;;25.37;;
59062;SDS011;44851;45.648;9.004;2023-10-31T00:59:48;29.43;;;25.53;;
59062;SDS011;44851;45.648;9.004;2023-10-31T01:02:18;32.70;;;25.80;;
59062;SDS011;44851;45.648;9.004;2023-10-31T01:04:46;34.53;;;27.43;;
59062;SDS011;44851;45.648;9.004;2023-10-31T01:07:16;34.73;;;27.90;;
59062;SDS011;44851;45.648;9.004;2023-10-31T01:09:45;34.90;;;28.93;;
59062;SDS011;44851;45.648;9.004;2023-10-31T01:12:11;34.67;;;29.43;;
59062;SDS011;44851;45.648;9.004;2023-10-31T01:14:37;32.60;;;27.90;;
59062;SDS011;44851;45.648;9.004;2023-10-31T01:17:05;31.80;;;27.63;;
59062;SDS011;44851;45.648;9.004;2023-10-31T01:19:34;33.10;;;27.67;;
59062;SDS011;44851;45.648;9.004;2023-10-31T01:22:00;32.53;;;26.97;;
59062;SDS011;44851;45.648;9.004;2023-10-31T01:24:29;33.93;;;28.37;;
59062;SDS011;44851;45.648;9.004;2023-10-31T01:26:55;30.57;;;26.63;;
59062;SDS011;44851;45.648;9.004;2023-10-31T01:29:26;32.50;;;26.37;;
59062;SDS011;44851;45.648;9.004;2023-10-31T01:32:52;34.33;;;25.87;;
59062;SDS011;44851;45.648;9.004;2023-10-31T01:35:43;34.53;;;27.17;;
59062;SDS011;44851;45.648;9.004;2023-10-31T01:38:22;34.93;;;27.03;;
59062;SDS011;44851;45.648;9.004;2023-10-31T01:41:11;31.57;;;25.60;;
59062;SDS011;44851;45.648;9.004;2023-10-31T01:55:27;27.87;;;23.10;;
59062;SDS011;44851;45.648;9.004;2023-10-31T01:58:48;27.73;;;22.90;;
59062;SDS011;44851;45.648;9.004;2023-10-31T02:01:40;27.33;;;22.83;;
59062;SDS011;44851;45.648;9.004;2023-10-31T02:08:39;25.57;;;21.93;;
59062;SDS011;44851;45.648;9.004;2023-10-31T02:12:08;25.43;;;21.03;;
59062;SDS011;44851;45.648;9.004;2023-10-31T02:18:55;27.10;;;21.33;;
59062;SDS011;44851;45.648;9.004;2023-10-31T02:32:54;20.93;;;17.80;;
59062;SDS011;44851;45.648;9.004;2023-10-31T02:36:11;19.17;;;17.03;;
59062;SDS011;44851;45.648;9.004;2023-10-31T02:39:39;21.30;;;16.80;;
59062;SDS011;44851;45.648;9.004;2023-10-31T02:43:19;21.00;;;16.27;;
59062;SDS011;44851;45.648;9.004;2023-10-31T02:56:31;18.30;;;15.13;;
59062;SDS011;44851;45.648;9.004;2023-10-31T03:03:27;15.47;;;13.23;;
59062;SDS011;44851;45.648;9.004;2023-10-31T03:06:51;15.03;;;12.37;;
59062;SDS011;44851;45.648;9.004;2023-10-31T03:22:41;8.80;;;7.03;;
59062;SDS011;44851;45.648;9.004;2023-10-31T03:25:52;2.30;;;1.60;;
59062;SDS011;44851;45.648;9.004;2023-10-31T03:28:50;1.93;;;1.07;;
59062;SDS011;44851;45.648;9.004;2023-10-31T03:39:34;1.43;;;0.70;;
59062;SDS011;44851;45.648;9.004;2023-10-31T03:42:02;0.73;;;0.50;;
59062;SDS011;44851;45.648;9.004;2023-10-31T03:45:06;0.37;;;0.37;;
59062;SDS011;44851;45.648;9.004;2023-10-31T03:48:51;1.47;;;1.00;;
59062;SDS011;44851;45.648;9.004;2023-10-31T04:42:43;0.30;;;0.30;;
59062;SDS011;44851;45.648;9.004;2023-10-31T04:45:16;1.07;;;0.50;;
59062;SDS011;44851;45.648;9.004;2023-10-31T04:47:41;0.80;;;0.40;;
59062;SDS011;44851;45.648;9.004;2023-10-31T04:50:54;2.70;;;0.60;;
59062;SDS011;44851;45.648;9.004;2023-10-31T04:53:21;0.73;;;0.47;;
59062;SDS011;44851;45.648;9.004;2023-10-31T04:55:47;1.60;;;0.50;;
59062;SDS011;44851;45.648;9.004;2023-10-31T04:58:12;1.50;;;0.40;;
59062;SDS011;44851;45.648;9.004;2023-10-31T05:00:37;0.73;;;0.50;;
59062;SDS011;44851;45.648;9.004;2023-10-31T05:03:03;0.30;;;0.30;;
59062;SDS011;44851;45.648;9.004;2023-10-31T05:05:28;1.97;;;0.60;;
59062;SDS011;44851;45.648;9.004;2023-10-31T05:07:54;0.67;;;0.40;;
59062;SDS011;44851;45.648;9.004;2023-10-31T05:10:19;2.77;;;0.50;;
59062;SDS011;44851;45.648;9.004;2023-10-31T05:12:44;0.63;;;0.40;;
59062;SDS011;44851;45.648;9.004;2023-10-31T05:15:10;1.73;;;0.50;;
59062;SDS011;44851;45.648;9.004;2023-10-31T05:17:35;0.23;;;0.23;;
59062;SDS011;44851;45.648;9.004;2023-10-31T05:20:01;2.07;;;0.50;;
59062;SDS011;44851;45.648;9.004;2023-10-31T05:22:26;0.67;;;0.50;;
59062;SDS011;44851;45.648;9.004;2023-10-31T05:24:52;0.40;;;0.40;;
59062;SDS011;44851;45.648;9.004;2023-10-31T05:27:17;0.50;;;0.43;;
59062;SDS011;44851;45.648;9.004;2023-10-31T05:29:43;3.27;;;0.60;;
59062;SDS011;44851;45.648;9.004;2023-10-31T05:32:08;0.50;;;0.50;;
59062;SDS011;44851;45.648;9.004;2023-10-31T05:34:34;0.47;;;0.47;;
59062;SDS011;44851;45.648;9.004;2023-10-31T05:37:00;1.00;;;0.40;;
59062;SDS011;44851;45.648;9.004;2023-10-31T05:39:25;0.93;;;0.53;;
59062;SDS011;44851;45.648;9.004;2023-10-31T05:41:51;1.20;;;0.63;;
59062;SDS011;44851;45.648;9.004;2023-10-31T05:44:17;0.83;;;0.70;;
59062;SDS011;44851;45.648;9.004;2023-10-31T05:46:42;0.47;;;0.40;;
59062;SDS011;44851;45.648;9.004;2023-10-31T05:49:08;0.40;;;0.40;;
59062;SDS011;44851;45.648;9.004;2023-10-31T05:51:33;2.30;;;0.50;;
59062;SDS011;44851;45.648;9.004;2023-10-31T05:54:00;2.27;;;0.67;;
59062;SDS011;44851;45.648;9.004;2023-10-31T05:56:25;0.50;;;0.50;;
59062;SDS011;44851;45.648;9.004;2023-10-31T05:58:51;0.50;;;0.50;;
59062;SDS011;44851;45.648;9.004;2023-10-31T06:01:16;0.30;;;0.30;;
59062;SDS011;44851;45.648;9.004;2023-10-31T06:03:42;1.30;;;0.40;;
59062;SDS011;44851;45.648;9.004;2023-10-31T06:06:08;1.37;;;0.50;;
59062;SDS011;44851;45.648;9.004;2023-10-31T06:08:34;0.80;;;0.50;;
59062;SDS011;44851;45.648;9.004;2023-10-31T06:10:59;1.80;;;0.70;;
59062;SDS011;44851;45.648;9.004;2023-10-31T06:13:25;0.50;;;0.50;;
59062;SDS011;44851;45.648;9.004;2023-10-31T06:15:51;1.90;;;0.50;;
59062;SDS011;44851;45.648;9.004;2023-10-31T06:18:16;0.67;;;0.60;;
59062;SDS011;44851;45.648;9.004;2023-10-31T06:20:42;0.63;;;0.50;;
59062;SDS011;44851;45.648;9.004;2023-10-31T06:23:07;1.07;;;0.57;;
59062;SDS011;44851;45.648;9.004;2023-10-31T06:25:32;1.50;;;0.50;;
59062;SDS011;44851;45.648;9.004;2023-10-31T06:27:58;0.90;;;0.60;;
59062;SDS011;44851;45.648;9.004;2023-10-31T06:30:23;0.40;;;0.40;;
59062;SDS011;44851;45.648;9.004;2023-10-31T06:32:52;0.70;;;0.50;;
59062;SDS011;44851;45.648;9.004;2023-10-31T06:35:18;1.43;;;0.80;;
59062;SDS011;44851;45.648;9.004;2023-10-31T06:37:44;0.43;;;0.43;;
59062;SDS011;44851;45.648;9.004;2023-10-31T06:40:09;3.37;;;0.60;;
59062;SDS011;44851;45.648;9.004;2023-10-31T06:42:35;0.57;;;0.43;;
59062;SDS011;44851;45.648;9.004;2023-10-31T06:45:01;1.03;;;0.50;;
59062;SDS011;44851;45.648;9.004;2023-10-31T06:47:26;0.60;;;0.60;;
59062;SDS011;44851;45.648;9.004;2023-10-31T06:49:52;0.60;;;0.60;;
59062;SDS011;44851;45.648;9.004;2023-10-31T06:52:17;1.07;;;0.47;;
59062;SDS011;44851;45.648;9.004;2023-10-31T06:54:42;1.30;;;0.40;;
59062;SDS011;44851;45.648;9.004;2023-10-31T06:57:08;0.50;;;0.50;;
59062;SDS011;44851;45.648;9.004;2023-10-31T06:59:34;0.93;;;0.40;;
59062;SDS011;44851;45.648;9.004;2023-10-31T07:01:59;1.00;;;0.40;;
59062;SDS011;44851;45.648;9.004;2023-10-31T07:04:25;0.90;;;0.70;;
59062;SDS011;44851;45.648;9.004;2023-10-31T07:06:51;0.73;;;0.47;;
59062;SDS011;44851;45.648;9.004;2023-10-31T07:09:22;1.17;;;0.40;;
59062;SDS011;44851;45.648;9.004;2023-10-31T07:11:51;0.33;;;0.33;;
59062;SDS011;44851;45.648;9.004;2023-10-31T07:14:16;2.07;;;0.80;;
59062;SDS011;44851;45.648;9.004;2023-10-31T07:16:42;5.47;;;0.60;;
59062;SDS011;44851;45.648;9.004;2023-10-31T07:19:09;1.57;;;0.80;;
59062;SDS011;44851;45.648;9.004;2023-10-31T07:21:35;0.77;;;0.40;;
59062;SDS011;44851;45.648;9.004;2023-10-31T07:24:00;0.40;;;0.40;;
59062;SDS011;44851;45.648;9.004;2023-10-31T07:26:26;0.77;;;0.40;;
59062;SDS011;44851;45.648;9.004;2023-10-31T07:28:52;1.30;;;0.50;;
59062;SDS011;44851;45.648;9.004;2023-10-31T07:31:17;0.50;;;0.50;;
59062;SDS011;44851;45.648;9.004;2023-10-31T07:33:43;1.07;;;0.50;;
59062;SDS011;44851;45.648;9.004;2023-10-31T07:36:12;0.87;;;0.60;;
59062;SDS011;44851;45.648;9.004;2023-10-31T07:38:37;0.50;;;0.50;;
59062;SDS011;44851;45.648;9.004;2023-10-31T07:41:03;1.50;;;0.80;;
59062;SDS011;44851;45.648;9.004;2023-10-31T07:43:29;0.60;;;0.60;;
59062;SDS011;44851;45.648;9.004;2023-10-31T07:45:54;0.30;;;0.30;;
59062;SDS011;44851;45.648;9.004;2023-10-31T07:48:19;1.00;;;0.50;;
59062;SDS011;44851;45.648;9.004;2023-10-31T07:50:45;0.90;;;0.40;;
59062;SDS011;44851;45.648;9.004;2023-10-31T07:53:10;1.03;;;0.57;;
59062;SDS011;44851;45.648;9.004;2023-10-31T07:55:36;0.40;;;0.40;;
59062;SDS011;44851;45.648;9.004;2023-10-31T07:58:01;0.50;;;0.50;;
59062;SDS011;44851;45.648;9.004;2023-10-31T08:00:26;0.77;;;0.50;;
59062;SDS011;44851;45.648;9.004;2023-10-31T08:02:52;0.80;;;0.80;;
59062;SDS011;44851;45.648;9.004;2023-10-31T08:05:17;1.03;;;0.70;;
59062;SDS011;44851;45.648;9.004;2023-10-31T08:07:42;3.70;;;1.20;;
59062;SDS011;44851;45.648;9.004;2023-10-31T08:10:09;1.10;;;1.00;;
59062;SDS011;44851;45.648;9.004;2023-10-31T08:12:34;1.43;;;0.90;;
59062;SDS011;44851;45.648;9.004;2023-10-31T08:15:00;0.93;;;0.73;;
59062;SDS011;44851;45.648;9.004;2023-10-31T08:17:26;0.80;;;0.80;;
59062;SDS011;44851;45.648;9.004;2023-10-31T08:19:51;0.77;;;0.77;;
59062;SDS011;44851;45.648;9.004;2023-10-31T08:22:16;2.03;;;0.80;;
59062;SDS011;44851;45.648;9.004;2023-10-31T08:24:42;1.97;;;1.23;;
59062;SDS011;44851;45.648;9.004;2023-10-31T08:27:07;2.43;;;1.70;;
59062;SDS011;44851;45.648;9.004;2023-10-31T08:29:33;2.03;;;1.80;;
59062;SDS011;44851;45.648;9.004;2023-10-31T08:31:58;2.43;;;2.20;;
59062;SDS011;44851;45.648;9.004;2023-10-31T08:34:23;2.20;;;2.00;;
59062;SDS011;44851;45.648;9.004;2023-10-31T08:36:49;2.47;;;2.10;;
59062;SDS011;44851;45.648;9.004;2023-10-31T08:39:15;4.30;;;2.17;;
59062;SDS011;44851;45.648;9.004;2023-10-31T08:41:52;2.27;;;1.47;;
59062;SDS011;44851;45.648;9.004;2023-10-31T08:44:19;0.80;;;0.80;;
59062;SDS011;44851;45.648;9.004;2023-10-31T08:46:44;0.80;;;0.70;;
59062;SDS011;44851;45.648;9.004;2023-10-31T08:49:10;0.70;;;0.70;;
59062;SDS011;44851;45.648;9.004;2023-10-31T08:51:35;0.70;;;0.70;;
59062;SDS011;44851;45.648;9.004;2023-10-31T08:54:00;1.37;;;1.03;;
59062;SDS011;44851;45.648;9.004;2023-10-31T08:56:26;1.73;;;1.10;;
59062;SDS011;44851;45.648;9.004;2023-10-31T08:58:52;1.20;;;1.10;;
59062;SDS011;44851;45.648;9.004;2023-10-31T09:01:18;1.43;;;1.33;;
59062;SDS011;44851;45.648;9.004;2023-10-31T09:03:44;1.60;;;1.13;;
59062;SDS011;44851;45.648;9.004;2023-10-31T09:06:09;1.80;;;1.23;;
59062;SDS011;44851;45.648;9.004;2023-10-31T09:08:35;2.07;;;1.50;;
59062;SDS011;44851;45.648;9.004;2023-10-31T09:11:02;2.17;;;1.40;;
59062;SDS011;44851;45.648;9.004;2023-10-31T09:13:28;1.40;;;1.30;;
59062;SDS011;44851;45.648;9.004;2023-10-31T09:15:54;3.27;;;1.23;;
59062;SDS011;44851;45.648;9.004;2023-10-31T09:18:19;1.20;;;1.10;;
59062;SDS011;44851;45.648;9.004;2023-10-31T09:20:45;5.07;;;1.40;;
59062;SDS011;44851;45.648;9.004;2023-10-31T09:23:11;2.70;;;1.30;;
59062;SDS011;44851;45.648;9.004;2023-10-31T09:25:36;1.33;;;0.97;;
59062;SDS011;44851;45.648;9.004;2023-10-31T09:28:02;2.97;;;1.20;;
59062;SDS011;44851;45.648;9.004;2023-10-31T09:30:27;3.77;;;1.50;;
59062;SDS011;44851;45.648;9.004;2023-10-31T09:32:52;1.17;;;1.00;;
59062;SDS011;44851;45.648;9.004;2023-10-31T09:35:18;1.53;;;1.20;;
59062;SDS011;44851;45.648;9.004;2023-10-31T09:37:43;2.97;;;1.20;;
59062;SDS011;44851;45.648;9.004;2023-10-31T09:40:10;1.10;;;1.00;;
59062;SDS011;44851;45.648;9.004;2023-10-31T09:42:36;2.50;;;1.30;;
59062;SDS011;44851;45.648;9.004;2023-10-31T09:45:01;4.50;;;1.20;;
59062;SDS011;44851;45.648;9.004;2023-10-31T09:47:27;8.80;;;1.93;;
59062;SDS011;44851;45.648;9.004;2023-10-31T09:49:54;3.23;;;1.37;;
59062;SDS011;44851;45.648;9.004;2023-10-31T09:52:20;5.87;;;1.73;;
59062;SDS011;44851;45.648;9.004;2023-10-31T09:54:46;3.20;;;1.30;;
59062;SDS011;44851;45.648;9.004;2023-10-31T09:57:14;4.93;;;1.60;;
59062;SDS011;44851;45.648;9.004;2023-10-31T09:59:39;7.93;;;2.30;;
59062;SDS011;44851;45.648;9.004;2023-10-31T10:02:04;8.57;;;1.70;;
59062;SDS011;44851;45.648;9.004;2023-10-31T10:04:30;4.50;;;1.30;;
59062;SDS011;44851;45.648;9.004;2023-10-31T10:07:00;2.40;;;1.33;;
59062;SDS011;44851;45.648;9.004;2023-10-31T10:09:26;2.50;;;1.50;;
59062;SDS011;44851;45.648;9.004;2023-10-31T10:11:52;3.40;;;2.90;;
59062;SDS011;44851;45.648;9.004;2023-10-31T10:14:18;3.47;;;2.40;;
59062;SDS011;44851;45.648;9.004;2023-10-31T10:16:43;2.40;;;1.70;;
59062;SDS011;44851;45.648;9.004;2023-10-31T10:19:15;1.80;;;1.70;;
59062;SDS011;44851;45.648;9.004;2023-10-31T10:21:49;2.80;;;1.40;;
59062;SDS011;44851;45.648;9.004;2023-10-31T10:24:22;1.40;;;1.30;;
59062;SDS011;44851;45.648;9.004;2023-10-31T10:26:49;1.57;;;1.40;;
59062;SDS011;44851;45.648;9.004;2023-10-31T10:29:15;2.37;;;1.67;;
59062;SDS011;44851;45.648;9.004;2023-10-31T10:31:40;1.40;;;1.30;;
59062;SDS011;44851;45.648;9.004;2023-10-31T10:34:07;1.33;;;1.23;;
59062;SDS011;44851;45.648;9.004;2023-10-31T10:36:37;2.10;;;1.57;;
59062;SDS011;44851;45.648;9.004;2023-10-31T10:39:03;2.40;;;1.40;;
59062;SDS011;44851;45.648;9.004;2023-10-31T10:41:32;2.60;;;1.50;;
59062;SDS011;44851;45.648;9.004;2023-10-31T10:44:06;2.83;;;1.50;;
59062;SDS011;44851;45.648;9.004;2023-10-31T10:46:35;1.67;;;1.30;;
59062;SDS011;44851;45.648;9.004;2023-10-31T10:49:04;4.17;;;1.93;;
59062;SDS011;44851;45.648;9.004;2023-10-31T10:51:43;2.53;;;1.50;;
59062;SDS011;44851;45.648;9.004;2023-10-31T10:54:28;2.43;;;1.20;;
59062;SDS011;44851;45.648;9.004;2023-10-31T10:57:04;2.53;;;1.33;;
59062;SDS011;44851;45.648;9.004;2023-10-31T10:59:51;0.83;;;0.83;;
59062;SDS011;44851;45.648;9.004;2023-10-31T11:02:23;0.93;;;0.83;;
59062;SDS011;44851;45.648;9.004;2023-10-31T11:04:49;2.67;;;1.00;;
59062;SDS011;44851;45.648;9.004;2023-10-31T11:07:16;1.67;;;1.27;;
59062;SDS011;44851;45.648;9.004;2023-10-31T11:09:43;1.33;;;1.00;;
59062;SDS011;44851;45.648;9.004;2023-10-31T11:12:10;2.33;;;0.90;;
59062;SDS011;44851;45.648;9.004;2023-10-31T11:14:36;0.97;;;0.90;;
59062;SDS011;44851;45.648;9.004;2023-10-31T11:17:06;5.90;;;1.27;;
59062;SDS011;44851;45.648;9.004;2023-10-31T11:19:36;1.17;;;1.00;;
59062;SDS011;44851;45.648;9.004;2023-10-31T11:22:02;1.40;;;1.27;;
59062;SDS011;44851;45.648;9.004;2023-10-31T11:24:33;1.40;;;1.00;;
59062;SDS011;44851;45.648;9.004;2023-10-31T11:27:02;1.20;;;1.00;;
59062;SDS011;44851;45.648;9.004;2023-10-31T11:29:30;0.93;;;0.90;;
59062;SDS011;44851;45.648;9.004;2023-10-31T11:31:57;1.63;;;1.20;;
59062;SDS011;44851;45.648;9.004;2023-10-31T11:34:23;1.20;;;1.07;;
59062;SDS011;44851;45.648;9.004;2023-10-31T11:36:51;1.80;;;1.00;;
59062;SDS011;44851;45.648;9.004;2023-10-31T11:39:21;2.03;;;1.00;;
59062;SDS011;44851;45.648;9.004;2023-10-31T11:41:53;1.20;;;0.80;;
59062;SDS011;44851;45.648;9.004;2023-10-31T11:44:23;0.60;;;0.60;;
59062;SDS011;44851;45.648;9.004;2023-10-31T11:46:51;1.23;;;0.97;;
59062;SDS011;44851;45.648;9.004;2023-10-31T11:49:17;2.30;;;1.30;;
59062;SDS011;44851;45.648;9.004;2023-10-31T11:52:03;1.70;;;1.20;;
59062;SDS011;44851;45.648;9.004;2023-10-31T11:54:39;1.47;;;1.03;;
59062;SDS011;44851;45.648;9.004;2023-10-31T11:57:05;1.63;;;1.10;;
59062;SDS011;44851;45.648;9.004;2023-10-31T11:59:39;1.13;;;0.90;;
59062;SDS011;44851;45.648;9.004;2023-10-31T12:02:12;1.50;;;1.00;;
59062;SDS011;44851;45.648;9.004;2023-10-31T12:04:40;3.60;;;1.00;;
59062;SDS011;44851;45.648;9.004;2023-10-31T12:07:06;1.93;;;1.00;;
59062;SDS011;44851;45.648;9.004;2023-10-31T12:09:31;1.83;;;1.00;;
59062;SDS011;44851;45.648;9.004;2023-10-31T12:11:57;0.90;;;0.80;;
59062;SDS011;44851;45.648;9.004;2023-10-31T12:14:22;0.90;;;0.90;;
59062;SDS011;44851;45.648;9.004;2023-10-31T12:16:47;0.80;;;0.80;;
59062;SDS011;44851;45.648;9.004;2023-10-31T12:19:13;1.37;;;0.97;;
59062;SDS011;44851;45.648;9.004;2023-10-31T12:21:39;1.07;;;0.80;;
59062;SDS011;44851;45.648;9.004;2023-10-31T12:24:15;0.70;;;0.70;;
59062;SDS011;44851;45.648;9.004;2023-10-31T12:26:42;0.93;;;0.80;;
59062;SDS011;44851;45.648;9.004;2023-10-31T12:29:16;3.17;;;1.00;;
59062;SDS011;44851;45.648;9.004;2023-10-31T12:31:43;2.67;;;0.97;;
59062;SDS011;44851;45.648;9.004;2023-10-31T12:34:14;0.80;;;0.67;;
59062;SDS011;44851;45.648;9.004;2023-10-31T12:36:43;1.17;;;0.83;;
59062;SDS011;44851;45.648;9.004;2023-10-31T12:39:10;1.67;;;1.07;;
59062;SDS011;44851;45.648;9.004;2023-10-31T12:41:37;1.17;;;0.70;;
59062;SDS011;44851;45.648;9.004;2023-10-31T12:44:03;1.87;;;1.07;;
59062;SDS011;44851;45.648;9.004;2023-10-31T12:46:30;1.83;;;0.97;;
59062;SDS011;44851;45.648;9.004;2023-10-31T12:48:59;1.43;;;0.93;;
59062;SDS011;44851;45.648;9.004;2023-10-31T12:51:24;2.23;;;1.30;;
59062;SDS011;44851;45.648;9.004;2023-10-31T12:53:53;1.17;;;0.90;;
59062;SDS011;44851;45.648;9.004;2023-10-31T12:56:34;3.80;;;1.30;;
59062;SDS011;44851;45.648;9.004;2023-10-31T12:59:07;1.47;;;1.03;;
59062;SDS011;44851;45.648;9.004;2023-10-31T13:01:44;1.20;;;0.70;;
59062;SDS011;44851;45.648;9.004;2023-10-31T13:04:10;1.07;;;1.00;;
59062;SDS011;44851;45.648;9.004;2023-10-31T13:06:36;0.60;;;0.60;;
59062;SDS011;44851;45.648;9.004;2023-10-31T13:09:03;2.10;;;0.70;;
59062;SDS011;44851;45.648;9.004;2023-10-31T13:11:31;1.00;;;0.67;;
59062;SDS011;44851;45.648;9.004;2023-10-31T13:13:59;1.43;;;0.87;;
59062;SDS011;44851;45.648;9.004;2023-10-31T13:16:24;1.27;;;0.93;;
59062;SDS011;44851;45.648;9.004;2023-10-31T13:18:53;5.00;;;2.47;;
59062;SDS011;44851;45.648;9.004;2023-10-31T13:21:19;2.53;;;1.10;;
59062;SDS011;44851;45.648;9.004;2023-10-31T13:23:45;1.30;;;0.87;;
59062;SDS011;44851;45.648;9.004;2023-10-31T13:26:12;3.27;;;1.50;;
59062;SDS011;44851;45.648;9.004;2023-10-31T13:28:37;7.40;;;2.73;;
59062;SDS011;44851;45.648;9.004;2023-10-31T13:31:04;5.10;;;1.70;;
59062;SDS011;44851;45.648;9.004;2023-10-31T13:33:30;3.47;;;1.60;;
59062;SDS011;44851;45.648;9.004;2023-10-31T13:35:56;2.87;;;1.13;;
59062;SDS011;44851;45.648;9.004;2023-10-31T13:38:21;0.97;;;0.80;;
59062;SDS011;44851;45.648;9.004;2023-10-31T13:40:47;2.63;;;1.00;;
59062;SDS011;44851;45.648;9.004;2023-10-31T13:43:13;1.03;;;0.90;;
59062;SDS011;44851;45.648;9.004;2023-10-31T13:45:38;1.00;;;0.90;;
59062;SDS011;44851;45.648;9.004;2023-10-31T13:48:04;16.80;;;5.17;;
59062;SDS011;44851;45.648;9.004;2023-10-31T13:50:29;39.37;;;8.70;;
59062;SDS011;44851;45.648;9.004;2023-10-31T13:52:55;2.27;;;1.10;;
59062;SDS011;44851;45.648;9.004;2023-10-31T13:55:21;2.33;;;0.90;;
59062;SDS011;44851;45.648;9.004;2023-10-31T13:57:48;1.13;;;0.83;;
59062;SDS011;44851;45.648;9.004;2023-10-31T14:00:14;1.50;;;1.00;;
59062;SDS011;44851;45.648;9.004;2023-10-31T14:02:39;2.70;;;0.90;;
59062;SDS011;44851;45.648;9.004;2023-10-31T14:05:05;1.10;;;1.00;;
59062;SDS011;44851;45.648;9.004;2023-10-31T14:07:30;36.50;;;7.77;;
59062;SDS011;44851;45.648;9.004;2023-10-31T14:09:56;18.97;;;5.20;;
59062;SDS011;44851;45.648;9.004;2023-10-31T14:12:22;92.03;;;16.70;;
59062;SDS011;44851;45.648;9.004;2023-10-31T14:14:48;311.70;;;51.37;;
59062;SDS011;44851;45.648;9.004;2023-10-31T14:17:14;27.57;;;5.50;;
59062;SDS011;44851;45.648;9.004;2023-10-31T14:19:41;8.17;;;1.87;;
59062;SDS011;44851;45.648;9.004;2023-10-31T14:22:07;1.67;;;0.73;;
59062;SDS011;44851;45.648;9.004;2023-10-31T14:24:33;1.83;;;0.90;;
59062;SDS011;44851;45.648;9.004;2023-10-31T14:26:59;24.83;;;6.23;;
59062;SDS011;44851;45.648;9.004;2023-10-31T14:29:25;2.23;;;1.10;;
59062;SDS011;44851;45.648;9.004;2023-10-31T14:31:50;8.83;;;2.40;;
59062;SDS011;44851;45.648;9.004;2023-10-31T14:34:16;11.63;;;3.13;;
59062;SDS011;44851;45.648;9.004;2023-10-31T14:36:41;42.10;;;10.67;;
59062;SDS011;44851;45.648;9.004;2023-10-31T14:39:07;8.00;;;2.33;;
59062;SDS011;44851;45.648;9.004;2023-10-31T14:41:33;1.37;;;1.00;;
59062;SDS011;44851;45.648;9.004;2023-10-31T14:43:59;1.70;;;0.80;;
59062;SDS011;44851;45.648;9.004;2023-10-31T14:46:25;3.07;;;1.03;;
59062;SDS011;44851;45.648;9.004;2023-10-31T14:48:51;1.10;;;0.87;;
59062;SDS011;44851;45.648;9.004;2023-10-31T14:51:16;1.67;;;1.00;;
59062;SDS011;44851;45.648;9.004;2023-10-31T14:53:42;14.03;;;3.27;;
59062;SDS011;44851;45.648;9.004;2023-10-31T14:56:07;1.43;;;1.13;;
59062;SDS011;44851;45.648;9.004;2023-10-31T14:58:33;18.33;;;4.80;;
59062;SDS011;44851;45.648;9.004;2023-10-31T15:00:58;30.17;;;6.70;;
59062;SDS011;44851;45.648;9.004;2023-10-31T15:03:23;2.37;;;1.20;;
59062;SDS011;44851;45.648;9.004;2023-10-31T15:05:49;8.07;;;1.77;;
59062;SDS011;44851;45.648;9.004;2023-10-31T15:08:14;15.63;;;3.90;;
59062;SDS011;44851;45.648;9.004;2023-10-31T15:10:39;9.83;;;2.60;;
59062;SDS011;44851;45.648;9.004;2023-10-31T15:13:05;174.97;;;34.33;;
59062;SDS011;44851;45.648;9.004;2023-10-31T15:15:30;214.13;;;39.40;;
59062;SDS011;44851;45.648;9.004;2023-10-31T15:17:56;137.77;;;28.20;;
59062;SDS011;44851;45.648;9.004;2023-10-31T15:20:21;86.33;;;17.60;;
59062;SDS011;44851;45.648;9.004;2023-10-31T15:22:46;5.67;;;2.27;;
59062;SDS011;44851;45.648;9.004;2023-10-31T15:25:12;4.47;;;1.77;;
59062;SDS011;44851;45.648;9.004;2023-10-31T15:27:37;5.60;;;2.03;;
59062;SDS011;44851;45.648;9.004;2023-10-31T15:30:03;6.80;;;1.63;;
59062;SDS011;44851;45.648;9.004;2023-10-31T15:32:33;1.83;;;0.80;;
59062;SDS011;44851;45.648;9.004;2023-10-31T15:34:59;1.10;;;0.90;;
59062;SDS011;44851;45.648;9.004;2023-10-31T15:37:24;1.50;;;1.10;;
59062;SDS011;44851;45.648;9.004;2023-10-31T15:39:50;1.57;;;0.90;;
59062;SDS011;44851;45.648;9.004;2023-10-31T15:42:16;1.63;;;1.00;;
59062;SDS011;44851;45.648;9.004;2023-10-31T15:44:42;2.67;;;1.30;;
59062;SDS011;44851;45.648;9.004;2023-10-31T15:47:07;23.30;;;4.37;;
59062;SDS011;44851;45.648;9.004;2023-10-31T15:49:34;23.07;;;4.37;;
59062;SDS011;44851;45.648;9.004;2023-10-31T15:52:00;21.30;;;5.40;;
59062;SDS011;44851;45.648;9.004;2023-10-31T15:54:27;314.20;;;56.30;;
59062;SDS011;44851;45.648;9.004;2023-10-31T15:56:52;137.17;;;27.17;;
59062;SDS011;44851;45.648;9.004;2023-10-31T15:59:18;31.40;;;7.23;;
59062;SDS011;44851;45.648;9.004;2023-10-31T16:01:43;8.73;;;2.37;;
59062;SDS011;44851;45.648;9.004;2023-10-31T16:04:09;8.43;;;2.93;;
59062;SDS011;44851;45.648;9.004;2023-10-31T16:06:35;25.07;;;5.17;;
59062;SDS011;44851;45.648;9.004;2023-10-31T16:09:01;80.00;;;14.97;;
59062;SDS011;44851;45.648;9.004;2023-10-31T16:11:28;80.63;;;13.33;;
59062;SDS011;44851;45.648;9.004;2023-10-31T16:13:53;120.40;;;21.53;;
59062;SDS011;44851;45.648;9.004;2023-10-31T16:16:18;135.23;;;24.93;;
59062;SDS011;44851;45.648;9.004;2023-10-31T16:18:44;196.17;;;34.43;;
59062;SDS011;44851;45.648;9.004;2023-10-31T16:21:16;55.83;;;11.03;;
59062;SDS011;44851;45.648;9.004;2023-10-31T16:23:42;4.50;;;2.20;;
59062;SDS011;44851;45.648;9.004;2023-10-31T16:26:08;2.67;;;1.90;;
59062;SDS011;44851;45.648;9.004;2023-10-31T16:28:33;1.80;;;1.67;;
59062;SDS011;44851;45.648;9.004;2023-10-31T16:30:59;3.33;;;1.93;;
59062;SDS011;44851;45.648;9.004;2023-10-31T16:33:24;4.73;;;2.43;;
59062;SDS011;44851;45.648;9.004;2023-10-31T16:35:50;3.07;;;2.17;;
59062;SDS011;44851;45.648;9.004;2023-10-31T16:38:15;3.27;;;2.33;;
59062;SDS011;44851;45.648;9.004;2023-10-31T16:40:41;2.40;;;2.20;;
59062;SDS011;44851;45.648;9.004;2023-10-31T16:43:06;3.80;;;2.17;;
59062;SDS011;44851;45.648;9.004;2023-10-31T16:45:31;2.20;;;2.00;;
59062;SDS011;44851;45.648;9.004;2023-10-31T16:47:58;2.97;;;2.57;;
59062;SDS011;44851;45.648;9.004;2023-10-31T16:50:23;3.20;;;2.90;;
59062;SDS011;44851;45.648;9.004;2023-10-31T16:52:54;5.70;;;3.63;;
59062;SDS011;44851;45.648;9.004;2023-10-31T16:55:20;5.03;;;3.30;;
59062;SDS011;44851;45.648;9.004;2023-10-31T16:57:45;4.43;;;3.60;;
59062;SDS011;44851;45.648;9.004;2023-10-31T17:00:11;4.50;;;3.90;;
59062;SDS011;44851;45.648;9.004;2023-10-31T17:02:37;4.93;;;4.43;;
59062;SDS011;44851;45.648;9.004;2023-10-31T17:05:02;6.43;;;4.60;;
59062;SDS011;44851;45.648;9.004;2023-10-31T17:07:29;7.50;;;4.40;;
59062;SDS011;44851;45.648;9.004;2023-10-31T17:09:54;5.83;;;4.10;;
59062;SDS011;44851;45.648;9.004;2023-10-31T17:12:19;5.87;;;4.67;;
59062;SDS011;44851;45.648;9.004;2023-10-31T17:14:45;4.57;;;4.00;;
59062;SDS011;44851;45.648;9.004;2023-10-31T17:17:10;4.40;;;4.00;;
59062;SDS011;44851;45.648;9.004;2023-10-31T17:19:36;4.87;;;3.70;;
59062;SDS011;44851;45.648;9.004;2023-10-31T17:22:01;4.30;;;3.90;;
59062;SDS011;44851;45.648;9.004;2023-10-31T17:24:27;5.53;;;3.90;;
59062;SDS011;44851;45.648;9.004;2023-10-31T17:26:52;3.97;;;3.50;;
59062;SDS011;44851;45.648;9.004;2023-10-31T17:29:18;5.70;;;4.20;;